sensor_id;sensor_type;location;lat;lon;timestamp;pressure;altitude;pressure_sealevel;temperature;humidity
64340;BME280;63709;53.258;-8.814;2023-03-20T00:02:04;101163.63;;;15.52;100.00
64340;BME280;63709;53.258;-8.814;2023-03-20T00:04:32;101170.41;;;15.56;100.00
64340;BME280;63709;53.258;-8.814;2023-03-20T00:06:57;101173.56;;;15.61;100.00
64340;BME280;63709;53.258;-8.814;2023-03-20T00:09:23;101169.16;;;15.60;100.00
64340;BME280;63709;53.258;-8.814;2023-03-20T00:11:50;101172.69;;;15.51;100.00
64340;BME280;63709;53.258;-8.814;2023-03-20T00:14:20;101161.66;;;15.54;100.00
64340;BME280;63709;53.258;-8.814;2023-03-20T00:16:48;101168.56;;;15.57;100.00
64340;BME280;63709;53.258;-8.814;2023-03-20T00:21:40;101162.50;;;15.55;100.00
64340;BME280;63709;53.258;-8.814;2023-03-20T00:24:06;101166.03;;;15.55;100.00
64340;BME280;63709;53.258;-8.814;2023-03-20T00:26:33;101161.78;;;15.53;100.00
64340;BME280;63709;53.258;-8.814;2023-03-20T00:28:59;101159.50;;;15.48;100.00
64340;BME280;63709;53.258;-8.814;2023-03-20T00:31:27;101164.63;;;15.51;100.00
64340;BME280;63709;53.258;-8.814;2023-03-20T00:33:55;101153.97;;;15.49;100.00
64340;BME280;63709;53.258;-8.814;2023-03-20T00:36:21;101150.88;;;15.44;100.00
64340;BME280;63709;53.258;-8.814;2023-03-20T00:38:47;101145.34;;;15.46;100.00
64340;BME280;63709;53.258;-8.814;2023-03-20T00:44:05;101148.03;;;15.46;100.00
64340;BME280;63709;53.258;-8.814;2023-03-20T00:46:34;101153.13;;;15.49;100.00
64340;BME280;63709;53.258;-8.814;2023-03-20T00:49:04;101150.00;;;15.44;100.00
64340;BME280;63709;53.258;-8.814;2023-03-20T00:51:30;101156.78;;;15.38;100.00
64340;BME280;63709;53.258;-8.814;2023-03-20T00:53:56;101148.44;;;15.41;100.00
64340;BME280;63709;53.258;-8.814;2023-03-20T00:58:50;101158.94;;;15.44;100.00
64340;BME280;63709;53.258;-8.814;2023-03-20T01:01:15;101170.84;;;15.52;100.00
64340;BME280;63709;53.258;-8.814;2023-03-20T01:03:42;101168.44;;;15.48;100.00
64340;BME280;63709;53.258;-8.814;2023-03-20T01:06:11;101166.97;;;15.35;100.00
64340;BME280;63709;53.258;-8.814;2023-03-20T01:08:37;101163.81;;;15.20;100.00
64340;BME280;63709;53.258;-8.814;2023-03-20T01:11:03;101170.13;;;15.40;100.00
64340;BME280;63709;53.258;-8.814;2023-03-20T01:13:36;101163.13;;;15.28;100.00
64340;BME280;63709;53.258;-8.814;2023-03-20T01:16:02;101168.97;;;15.33;100.00
64340;BME280;63709;53.258;-8.814;2023-03-20T01:18:29;101172.06;;;15.28;100.00
64340;BME280;63709;53.258;-8.814;2023-03-20T01:20:54;101162.88;;;15.40;100.00
64340;BME280;63709;53.258;-8.814;2023-03-20T01:23:21;101174.47;;;15.31;100.00
64340;BME280;63709;53.258;-8.814;2023-03-20T01:25:50;101160.03;;;15.32;100.00
64340;BME280;63709;53.258;-8.814;2023-03-20T01:28:17;101158.31;;;15.31;100.00
64340;BME280;63709;53.258;-8.814;2023-03-20T01:30:44;101166.38;;;15.31;100.00
64340;BME280;63709;53.258;-8.814;2023-03-20T01:33:15;101162.84;;;15.31;100.00
64340;BME280;63709;53.258;-8.814;2023-03-20T01:35:41;101161.19;;;15.39;100.00
64340;BME280;63709;53.258;-8.814;2023-03-20T01:38:14;101162.47;;;15.35;100.00
64340;BME280;63709;53.258;-8.814;2023-03-20T01:43:19;101159.47;;;15.38;100.00
64340;BME280;63709;53.258;-8.814;2023-03-20T01:48:20;101152.81;;;15.33;100.00
64340;BME280;63709;53.258;-8.814;2023-03-20T01:50:47;101154.78;;;15.31;100.00
64340;BME280;63709;53.258;-8.814;2023-03-20T01:53:14;101144.75;;;15.33;100.00
64340;BME280;63709;53.258;-8.814;2023-03-20T01:55:40;101153.13;;;15.39;100.00
64340;BME280;63709;53.258;-8.814;2023-03-20T01:58:12;101142.59;;;15.27;100.00
64340;BME280;63709;53.258;-8.814;2023-03-20T02:00:39;101148.56;;;15.20;100.00
64340;BME280;63709;53.258;-8.814;2023-03-20T02:03:05;101142.38;;;15.39;100.00
64340;BME280;63709;53.258;-8.814;2023-03-20T02:05:31;101136.81;;;15.31;100.00
64340;BME280;63709;53.258;-8.814;2023-03-20T02:10:59;101125.78;;;15.34;100.00
64340;BME280;63709;53.258;-8.814;2023-03-20T02:13:25;101123.22;;;15.33;100.00
64340;BME280;63709;53.258;-8.814;2023-03-20T02:15:55;101118.28;;;15.38;100.00
64340;BME280;63709;53.258;-8.814;2023-03-20T02:18:21;101104.56;;;15.41;100.00
64340;BME280;63709;53.258;-8.814;2023-03-20T02:26:02;101106.13;;;15.43;100.00
64340;BME280;63709;53.258;-8.814;2023-03-20T02:36:25;101096.06;;;15.55;100.00
64340;BME280;63709;53.258;-8.814;2023-03-20T02:41:28;101098.78;;;15.55;100.00
64340;BME280;63709;53.258;-8.814;2023-03-20T02:44:00;101099.47;;;15.57;100.00
64340;BME280;63709;53.258;-8.814;2023-03-20T02:49:18;101101.88;;;15.60;100.00
64340;BME280;63709;53.258;-8.814;2023-03-20T02:57:00;101102.59;;;15.62;100.00
64340;BME280;63709;53.258;-8.814;2023-03-20T03:02:07;101090.44;;;15.68;100.00
64340;BME280;63709;53.258;-8.814;2023-03-20T03:04:37;101094.00;;;15.68;100.00
64340;BME280;63709;53.258;-8.814;2023-03-20T03:07:03;101092.28;;;15.67;100.00
64340;BME280;63709;53.258;-8.814;2023-03-20T03:09:32;101089.31;;;15.70;100.00
64340;BME280;63709;53.258;-8.814;2023-03-20T03:12:02;101088.63;;;15.68;100.00
64340;BME280;63709;53.258;-8.814;2023-03-20T03:14:36;101084.09;;;15.69;100.00
64340;BME280;63709;53.258;-8.814;2023-03-20T03:17:04;101076.69;;;15.71;100.00
64340;BME280;63709;53.258;-8.814;2023-03-20T03:19:30;101076.44;;;15.74;100.00
64340;BME280;63709;53.258;-8.814;2023-03-20T03:21:58;101080.25;;;15.71;100.00
64340;BME280;63709;53.258;-8.814;2023-03-20T03:24:29;101075.16;;;15.68;100.00
64340;BME280;63709;53.258;-8.814;2023-03-20T03:26:59;101072.03;;;15.73;100.00
64340;BME280;63709;53.258;-8.814;2023-03-20T03:29:29;101070.19;;;15.73;100.00
64340;BME280;63709;53.258;-8.814;2023-03-20T03:31:55;101067.63;;;15.72;100.00
64340;BME280;63709;53.258;-8.814;2023-03-20T03:34:21;101062.25;;;15.72;100.00
64340;BME280;63709;53.258;-8.814;2023-03-20T03:41:54;101053.16;;;15.63;100.00
64340;BME280;63709;53.258;-8.814;2023-03-20T03:46:52;101058.00;;;15.50;100.00
64340;BME280;63709;53.258;-8.814;2023-03-20T03:49:20;101057.28;;;15.48;100.00
64340;BME280;63709;53.258;-8.814;2023-03-20T03:51:48;101055.59;;;15.47;100.00
64340;BME280;63709;53.258;-8.814;2023-03-20T03:54:16;101055.88;;;15.44;100.00
64340;BME280;63709;53.258;-8.814;2023-03-20T03:56:43;101051.75;;;15.40;100.00
64340;BME280;63709;53.258;-8.814;2023-03-20T03:59:25;101047.94;;;15.33;100.00
64340;BME280;63709;53.258;-8.814;2023-03-20T04:01:52;101044.69;;;15.39;100.00
64340;BME280;63709;53.258;-8.814;2023-03-20T04:04:18;101040.44;;;15.36;100.00
64340;BME280;63709;53.258;-8.814;2023-03-20T04:06:47;101037.31;;;15.41;100.00
64340;BME280;63709;53.258;-8.814;2023-03-20T04:09:13;101035.03;;;15.46;100.00
64340;BME280;63709;53.258;-8.814;2023-03-20T04:11:38;101031.94;;;15.41;100.00
64340;BME280;63709;53.258;-8.814;2023-03-20T04:14:05;101032.63;;;15.53;100.00
64340;BME280;63709;53.258;-8.814;2023-03-20T04:16:30;101028.41;;;15.50;100.00
64340;BME280;63709;53.258;-8.814;2023-03-20T04:18:56;101026.84;;;15.47;100.00
64340;BME280;63709;53.258;-8.814;2023-03-20T04:21:22;101028.41;;;15.50;100.00
64340;BME280;63709;53.258;-8.814;2023-03-20T04:23:48;101024.28;;;15.56;100.00
64340;BME280;63709;53.258;-8.814;2023-03-20T04:26:15;101021.44;;;15.57;100.00
64340;BME280;63709;53.258;-8.814;2023-03-20T04:28:40;101024.84;;;15.59;100.00
64340;BME280;63709;53.258;-8.814;2023-03-20T04:31:06;101023.44;;;15.55;100.00
64340;BME280;63709;53.258;-8.814;2023-03-20T04:33:31;101028.53;;;15.58;100.00
64340;BME280;63709;53.258;-8.814;2023-03-20T04:35:57;101020.19;;;15.61;100.00
64340;BME280;63709;53.258;-8.814;2023-03-20T04:38:23;101016.94;;;15.58;100.00
64340;BME280;63709;53.258;-8.814;2023-03-20T04:40:50;101004.44;;;15.57;100.00
64340;BME280;63709;53.258;-8.814;2023-03-20T04:43:17;101006.16;;;15.58;100.00
64340;BME280;63709;53.258;-8.814;2023-03-20T04:45:43;100999.34;;;15.63;100.00
64340;BME280;63709;53.258;-8.814;2023-03-20T04:48:09;100999.50;;;15.62;100.00
64340;BME280;63709;53.258;-8.814;2023-03-20T04:50:35;100983.19;;;15.63;100.00
64340;BME280;63709;53.258;-8.814;2023-03-20T04:53:02;100974.28;;;15.63;100.00
64340;BME280;63709;53.258;-8.814;2023-03-20T04:55:28;100977.13;;;15.61;100.00
64340;BME280;63709;53.258;-8.814;2023-03-20T04:57:53;100977.97;;;15.62;100.00
64340;BME280;63709;53.258;-8.814;2023-03-20T05:00:20;100976.41;;;15.59;100.00
64340;BME280;63709;53.258;-8.814;2023-03-20T05:02:46;100978.69;;;15.54;100.00
64340;BME280;63709;53.258;-8.814;2023-03-20T05:05:11;100984.78;;;15.56;100.00
64340;BME280;63709;53.258;-8.814;2023-03-20T05:07:37;100989.75;;;15.51;100.00
64340;BME280;63709;53.258;-8.814;2023-03-20T05:10:03;100989.47;;;15.54;100.00
64340;BME280;63709;53.258;-8.814;2023-03-20T05:12:28;100988.06;;;15.50;100.00
64340;BME280;63709;53.258;-8.814;2023-03-20T05:14:54;100978.97;;;15.51;100.00
64340;BME280;63709;53.258;-8.814;2023-03-20T05:17:23;100979.97;;;15.50;100.00
64340;BME280;63709;53.258;-8.814;2023-03-20T05:19:50;100985.03;;;15.53;100.00
64340;BME280;63709;53.258;-8.814;2023-03-20T05:22:18;100978.69;;;15.54;100.00
64340;BME280;63709;53.258;-8.814;2023-03-20T05:24:43;100974.84;;;15.57;100.00
64340;BME280;63709;53.258;-8.814;2023-03-20T05:27:09;100966.09;;;15.55;100.00
64340;BME280;63709;53.258;-8.814;2023-03-20T05:29:36;100981.06;;;15.57;100.00
64340;BME280;63709;53.258;-8.814;2023-03-20T05:32:01;100982.34;;;15.53;100.00
64340;BME280;63709;53.258;-8.814;2023-03-20T05:34:27;100979.69;;;15.43;100.00
64340;BME280;63709;53.258;-8.814;2023-03-20T05:36:52;100977.44;;;15.39;100.00
64340;BME280;63709;53.258;-8.814;2023-03-20T05:39:18;100981.97;;;15.29;100.00
64340;BME280;63709;53.258;-8.814;2023-03-20T05:41:43;100968.63;;;15.27;100.00
64340;BME280;63709;53.258;-8.814;2023-03-20T05:44:10;100972.75;;;15.31;100.00
64340;BME280;63709;53.258;-8.814;2023-03-20T05:46:35;100973.44;;;15.23;100.00
64340;BME280;63709;53.258;-8.814;2023-03-20T05:49:01;100978.97;;;15.12;100.00
64340;BME280;63709;53.258;-8.814;2023-03-20T05:51:26;100975.00;;;15.16;100.00
64340;BME280;63709;53.258;-8.814;2023-03-20T05:53:53;100969.50;;;15.18;100.00
64340;BME280;63709;53.258;-8.814;2023-03-20T05:56:19;100976.00;;;15.15;100.00
64340;BME280;63709;53.258;-8.814;2023-03-20T05:58:45;100974.88;;;15.18;100.00
64340;BME280;63709;53.258;-8.814;2023-03-20T06:01:11;100974.59;;;15.11;100.00
64340;BME280;63709;53.258;-8.814;2023-03-20T06:03:40;100981.50;;;15.04;100.00
64340;BME280;63709;53.258;-8.814;2023-03-20T06:06:06;100972.63;;;15.13;100.00
64340;BME280;63709;53.258;-8.814;2023-03-20T06:08:31;100973.47;;;15.14;100.00
64340;BME280;63709;53.258;-8.814;2023-03-20T06:10:57;100975.88;;;15.07;100.00
64340;BME280;63709;53.258;-8.814;2023-03-20T06:13:22;100971.50;;;15.06;100.00
64340;BME280;63709;53.258;-8.814;2023-03-20T06:15:48;100969.63;;;15.16;100.00
64340;BME280;63709;53.258;-8.814;2023-03-20T06:18:13;100973.19;;;15.17;100.00
64340;BME280;63709;53.258;-8.814;2023-03-20T06:20:40;100972.03;;;15.19;100.00
64340;BME280;63709;53.258;-8.814;2023-03-20T06:23:05;100973.03;;;15.18;100.00
64340;BME280;63709;53.258;-8.814;2023-03-20T06:25:31;100970.50;;;15.17;100.00
64340;BME280;63709;53.258;-8.814;2023-03-20T06:27:57;100979.13;;;15.20;100.00
64340;BME280;63709;53.258;-8.814;2023-03-20T06:30:22;100989.19;;;15.28;100.00
64340;BME280;63709;53.258;-8.814;2023-03-20T06:32:48;100991.00;;;15.28;100.00
64340;BME280;63709;53.258;-8.814;2023-03-20T06:35:14;100986.91;;;15.23;100.00
64340;BME280;63709;53.258;-8.814;2023-03-20T06:37:40;100983.09;;;15.26;100.00
64340;BME280;63709;53.258;-8.814;2023-03-20T06:40:06;100982.53;;;15.22;100.00
64340;BME280;63709;53.258;-8.814;2023-03-20T06:42:31;100986.91;;;15.23;100.00
64340;BME280;63709;53.258;-8.814;2023-03-20T06:44:58;100987.34;;;15.29;100.00
64340;BME280;63709;53.258;-8.814;2023-03-20T06:47:25;100987.78;;;15.24;100.00
64340;BME280;63709;53.258;-8.814;2023-03-20T06:49:50;100982.94;;;15.08;100.00
64340;BME280;63709;53.258;-8.814;2023-03-20T06:52:16;100984.66;;;15.09;100.00
64340;BME280;63709;53.258;-8.814;2023-03-20T06:54:42;100985.50;;;15.10;100.00
64340;BME280;63709;53.258;-8.814;2023-03-20T06:57:08;100985.06;;;15.14;100.00
64340;BME280;63709;53.258;-8.814;2023-03-20T06:59:34;100987.16;;;15.01;100.00
64340;BME280;63709;53.258;-8.814;2023-03-20T07:02:02;100983.78;;;14.99;100.00
64340;BME280;63709;53.258;-8.814;2023-03-20T07:04:27;100982.81;;;15.10;100.00
64340;BME280;63709;53.258;-8.814;2023-03-20T07:06:53;100984.34;;;15.12;100.00
64340;BME280;63709;53.258;-8.814;2023-03-20T07:09:18;100983.94;;;15.07;100.00
64340;BME280;63709;53.258;-8.814;2023-03-20T07:11:46;100990.44;;;15.05;100.00
64340;BME280;63709;53.258;-8.814;2023-03-20T07:14:12;100981.50;;;15.04;100.00
64340;BME280;63709;53.258;-8.814;2023-03-20T07:16:38;100987.03;;;15.03;100.00
64340;BME280;63709;53.258;-8.814;2023-03-20T07:19:05;100990.88;;;15.10;100.00
64340;BME280;63709;53.258;-8.814;2023-03-20T07:21:32;100994.41;;;15.10;100.00
64340;BME280;63709;53.258;-8.814;2023-03-20T07:23:58;100990.03;;;15.09;100.00
64340;BME280;63709;53.258;-8.814;2023-03-20T07:26:25;100995.41;;;15.19;100.00
64340;BME280;63709;53.258;-8.814;2023-03-20T07:28:51;100989.44;;;15.15;100.00
64340;BME280;63709;53.258;-8.814;2023-03-20T07:31:22;100988.63;;;15.24;100.00
64340;BME280;63709;53.258;-8.814;2023-03-20T07:33:49;100988.75;;;15.33;100.00
64340;BME280;63709;53.258;-8.814;2023-03-20T07:36:14;100994.81;;;15.35;100.00
64340;BME280;63709;53.258;-8.814;2023-03-20T07:38:39;100989.19;;;15.47;100.00
64340;BME280;63709;53.258;-8.814;2023-03-20T07:41:05;100991.03;;;15.47;100.00
64340;BME280;63709;53.258;-8.814;2023-03-20T07:43:31;100989.47;;;15.54;100.00
64340;BME280;63709;53.258;-8.814;2023-03-20T07:45:56;100977.97;;;15.52;100.00
64340;BME280;63709;53.258;-8.814;2023-03-20T07:48:22;100974.00;;;15.56;100.00
64340;BME280;63709;53.258;-8.814;2023-03-20T07:50:47;100974.84;;;15.57;100.00
64340;BME280;63709;53.258;-8.814;2023-03-20T07:53:13;100973.44;;;15.53;100.00
64340;BME280;63709;53.258;-8.814;2023-03-20T07:55:38;100967.50;;;15.59;100.00
64340;BME280;63709;53.258;-8.814;2023-03-20T07:58:03;100971.91;;;15.50;100.00
64340;BME280;63709;53.258;-8.814;2023-03-20T08:00:30;100976.97;;;15.53;100.00
64340;BME280;63709;53.258;-8.814;2023-03-20T08:02:56;100984.94;;;15.55;100.00
64340;BME280;63709;53.258;-8.814;2023-03-20T08:05:22;100982.06;;;15.56;100.00
64340;BME280;63709;53.258;-8.814;2023-03-20T08:07:47;100976.81;;;15.64;100.00
64340;BME280;63709;53.258;-8.814;2023-03-20T08:10:14;100982.06;;;15.56;100.00
64340;BME280;63709;53.258;-8.814;2023-03-20T08:12:40;100979.97;;;15.69;100.00
64340;BME280;63709;53.258;-8.814;2023-03-20T08:15:07;100974.88;;;15.76;100.00
64340;BME280;63709;53.258;-8.814;2023-03-20T08:17:41;100969.59;;;15.84;100.00
64340;BME280;63709;53.258;-8.814;2023-03-20T08:20:07;100983.63;;;15.78;100.00
64340;BME280;63709;53.258;-8.814;2023-03-20T08:22:33;100982.50;;;15.52;100.00
64340;BME280;63709;53.258;-8.814;2023-03-20T08:24:58;100982.38;;;15.34;100.00
64340;BME280;63709;53.258;-8.814;2023-03-20T08:27:25;100988.59;;;15.44;100.00
64340;BME280;63709;53.258;-8.814;2023-03-20T08:29:51;100998.66;;;15.52;100.00
64340;BME280;63709;53.258;-8.814;2023-03-20T08:32:17;100983.75;;;15.57;100.00
64340;BME280;63709;53.258;-8.814;2023-03-20T08:34:42;100979.66;;;15.53;100.00
64340;BME280;63709;53.258;-8.814;2023-03-20T08:37:08;100986.78;;;15.54;100.00
64340;BME280;63709;53.258;-8.814;2023-03-20T08:39:35;100980.22;;;15.57;100.00
64340;BME280;63709;53.258;-8.814;2023-03-20T08:42:02;100973.44;;;15.62;100.00
64340;BME280;63709;53.258;-8.814;2023-03-20T08:44:28;100984.19;;;15.72;100.00
64340;BME280;63709;53.258;-8.814;2023-03-20T08:46:53;100977.00;;;15.72;100.00
64340;BME280;63709;53.258;-8.814;2023-03-20T08:49:19;100984.34;;;15.70;100.00
64340;BME280;63709;53.258;-8.814;2023-03-20T08:51:45;100979.81;;;15.71;100.00
64340;BME280;63709;53.258;-8.814;2023-03-20T08:54:12;100979.53;;;15.74;100.00
64340;BME280;63709;53.258;-8.814;2023-03-20T08:56:41;100979.81;;;15.81;100.00
64340;BME280;63709;53.258;-8.814;2023-03-20T08:59:07;100979.25;;;15.77;100.00
64340;BME280;63709;53.258;-8.814;2023-03-20T09:01:32;100977.84;;;15.73;100.00
64340;BME280;63709;53.258;-8.814;2023-03-20T09:03:58;100974.44;;;15.81;100.00
64340;BME280;63709;53.258;-8.814;2023-03-20T09:06:23;100968.75;;;15.84;100.00
64340;BME280;63709;53.258;-8.814;2023-03-20T09:08:50;100973.88;;;15.77;100.00
64340;BME280;63709;53.258;-8.814;2023-03-20T09:11:17;100964.50;;;15.91;100.00
64340;BME280;63709;53.258;-8.814;2023-03-20T09:13:44;100949.13;;;16.01;100.00
64340;BME280;63709;53.258;-8.814;2023-03-20T09:16:11;100941.91;;;16.02;100.00
64340;BME280;63709;53.258;-8.814;2023-03-20T09:18:36;100941.94;;;15.92;100.00
64340;BME280;63709;53.258;-8.814;2023-03-20T09:21:01;100944.75;;;16.00;100.00
64340;BME280;63709;53.258;-8.814;2023-03-20T09:23:27;100943.63;;;16.03;100.00
64340;BME280;63709;53.258;-8.814;2023-03-20T09:25:54;100947.56;;;16.08;100.00
64340;BME280;63709;53.258;-8.814;2023-03-20T09:28:19;100950.66;;;16.13;100.00
64340;BME280;63709;53.258;-8.814;2023-03-20T09:30:44;100949.94;;;16.21;100.00
64340;BME280;63709;53.258;-8.814;2023-03-20T09:33:10;100944.94;;;16.26;100.00
64340;BME280;63709;53.258;-8.814;2023-03-20T09:35:36;100939.28;;;16.19;100.00
64340;BME280;63709;53.258;-8.814;2023-03-20T09:38:01;100934.06;;;16.18;100.00
64340;BME280;63709;53.258;-8.814;2023-03-20T09:40:48;100924.84;;;16.20;100.00
64340;BME280;63709;53.258;-8.814;2023-03-20T09:45:46;100923.72;;;16.41;100.00
64340;BME280;63709;53.258;-8.814;2023-03-20T09:48:24;100929.56;;;16.36;100.00
64340;BME280;63709;53.258;-8.814;2023-03-20T09:51:00;100929.97;;;16.41;100.00
64340;BME280;63709;53.258;-8.814;2023-03-20T09:53:36;100928.56;;;16.37;100.00
64340;BME280;63709;53.258;-8.814;2023-03-20T09:56:04;100928.94;;;16.42;100.00
64340;BME280;63709;53.258;-8.814;2023-03-20T09:58:35;100925.91;;;16.55;100.00
64340;BME280;63709;53.258;-8.814;2023-03-20T10:01:03;100929.63;;;16.54;100.00
64340;BME280;63709;53.258;-8.814;2023-03-20T10:05:57;100920.22;;;16.58;100.00
64340;BME280;63709;53.258;-8.814;2023-03-20T10:08:27;100920.06;;;16.60;100.00
64340;BME280;63709;53.258;-8.814;2023-03-20T10:16:06;100926.81;;;16.74;100.00
64340;BME280;63709;53.258;-8.814;2023-03-20T10:18:39;100913.03;;;16.77;100.00
64340;BME280;63709;53.258;-8.814;2023-03-20T10:21:15;100908.41;;;16.87;100.00
64340;BME280;63709;53.258;-8.814;2023-03-20T10:24:45;100918.59;;;16.93;100.00
64340;BME280;63709;53.258;-8.814;2023-03-20T10:29:20;100920.66;;;16.81;100.00
64340;BME280;63709;53.258;-8.814;2023-03-20T10:34:42;100910.88;;;16.98;100.00
64340;BME280;63709;53.258;-8.814;2023-03-20T10:37:18;100901.81;;;16.99;100.00
64340;BME280;63709;53.258;-8.814;2023-03-20T10:42:20;100905.63;;;17.14;100.00
64340;BME280;63709;53.258;-8.814;2023-03-20T10:44:53;100906.66;;;17.13;100.00
64340;BME280;63709;53.258;-8.814;2023-03-20T10:47:21;100902.16;;;17.22;100.00
64340;BME280;63709;53.258;-8.814;2023-03-20T10:49:51;100895.03;;;17.39;100.00
64340;BME280;63709;53.258;-8.814;2023-03-20T10:52:20;100898.38;;;17.33;100.00
64340;BME280;63709;53.258;-8.814;2023-03-20T10:54:51;100893.88;;;17.41;100.00
64340;BME280;63709;53.258;-8.814;2023-03-20T10:57:23;100900.41;;;17.39;100.00
64340;BME280;63709;53.258;-8.814;2023-03-20T10:59:51;100889.28;;;17.60;100.00
64340;BME280;63709;53.258;-8.814;2023-03-20T11:02:18;100897.94;;;17.46;100.00
64340;BME280;63709;53.258;-8.814;2023-03-20T11:04:44;100889.81;;;17.63;100.00
64340;BME280;63709;53.258;-8.814;2023-03-20T11:09:44;100886.72;;;17.76;100.00
64340;BME280;63709;53.258;-8.814;2023-03-20T11:12:16;100880.66;;;17.82;100.00
64340;BME280;63709;53.258;-8.814;2023-03-20T11:14:46;100878.06;;;17.73;100.00
64340;BME280;63709;53.258;-8.814;2023-03-20T11:17:11;100871.97;;;17.71;100.00
64340;BME280;63709;53.258;-8.814;2023-03-20T11:19:37;100875.94;;;17.58;100.00
64340;BME280;63709;53.258;-8.814;2023-03-20T11:22:36;100876.00;;;17.66;100.00
64340;BME280;63709;53.258;-8.814;2023-03-20T11:25:01;100876.19;;;17.73;100.00
64340;BME280;63709;53.258;-8.814;2023-03-20T11:27:28;100883.53;;;17.81;100.00
64340;BME280;63709;53.258;-8.814;2023-03-20T11:29:54;100873.81;;;17.96;100.00
64340;BME280;63709;53.258;-8.814;2023-03-20T11:32:28;100883.28;;;18.00;100.00
64340;BME280;63709;53.258;-8.814;2023-03-20T11:34:54;100884.72;;;17.86;100.00
64340;BME280;63709;53.258;-8.814;2023-03-20T11:39:58;100883.88;;;17.86;100.00
64340;BME280;63709;53.258;-8.814;2023-03-20T11:42:25;100876.44;;;17.80;100.00
64340;BME280;63709;53.258;-8.814;2023-03-20T11:44:58;100874.91;;;17.77;100.00
64340;BME280;63709;53.258;-8.814;2023-03-20T11:47:25;100884.09;;;17.66;100.00
64340;BME280;63709;53.258;-8.814;2023-03-20T11:50:00;100876.34;;;17.72;100.00
64340;BME280;63709;53.258;-8.814;2023-03-20T11:52:31;100870.91;;;17.63;100.00
64340;BME280;63709;53.258;-8.814;2023-03-20T11:54:57;100853.91;;;17.71;100.00
64340;BME280;63709;53.258;-8.814;2023-03-20T11:57:29;100856.38;;;17.64;100.00
64340;BME280;63709;53.258;-8.814;2023-03-20T11:59:56;100867.69;;;17.60;100.00
64340;BME280;63709;53.258;-8.814;2023-03-20T12:02:22;100851.69;;;17.66;100.00
64340;BME280;63709;53.258;-8.814;2023-03-20T12:04:49;100864.44;;;17.56;100.00
64340;BME280;63709;53.258;-8.814;2023-03-20T12:07:27;100848.25;;;17.56;100.00
64340;BME280;63709;53.258;-8.814;2023-03-20T12:09:56;100852.00;;;17.63;100.00
64340;BME280;63709;53.258;-8.814;2023-03-20T12:20:47;100829.66;;;17.53;100.00
64340;BME280;63709;53.258;-8.814;2023-03-20T12:23:04;100824.88;;;17.65;100.00
64340;BME280;63709;53.258;-8.814;2023-03-20T12:28:19;100821.66;;;17.61;100.00
64340;BME280;63709;53.258;-8.814;2023-03-20T12:31:01;100826.69;;;17.64;100.00
64340;BME280;63709;53.258;-8.814;2023-03-20T12:36:11;100815.38;;;17.61;100.00
64340;BME280;63709;53.258;-8.814;2023-03-20T12:38:38;100813.59;;;17.70;100.00
64340;BME280;63709;53.258;-8.814;2023-03-20T12:41:11;100817.72;;;17.56;100.00
64340;BME280;63709;53.258;-8.814;2023-03-20T12:43:41;100807.94;;;17.55;100.00
64340;BME280;63709;53.258;-8.814;2023-03-20T12:46:24;100800.56;;;17.39;100.00
64340;BME280;63709;53.258;-8.814;2023-03-20T12:49:12;100795.06;;;17.49;100.00
64340;BME280;63709;53.258;-8.814;2023-03-20T12:51:44;100790.84;;;17.46;100.00
64340;BME280;63709;53.258;-8.814;2023-03-20T13:01:47;100781.25;;;17.52;100.00
64340;BME280;63709;53.258;-8.814;2023-03-20T13:07:05;100770.88;;;17.65;100.00
64340;BME280;63709;53.258;-8.814;2023-03-20T13:19:31;100749.91;;;17.93;100.00
64340;BME280;63709;53.258;-8.814;2023-03-20T13:22:04;100747.22;;;18.01;100.00
64340;BME280;63709;53.258;-8.814;2023-03-20T13:24:32;100743.34;;;18.12;100.00
64340;BME280;63709;53.258;-8.814;2023-03-20T13:34:53;100735.63;;;18.17;100.00
64340;BME280;63709;53.258;-8.814;2023-03-20T13:37:27;100727.00;;;18.30;100.00
64340;BME280;63709;53.258;-8.814;2023-03-20T13:40:19;100714.84;;;18.34;100.00
64340;BME280;63709;53.258;-8.814;2023-03-20T13:47:59;100708.09;;;18.13;100.00
64340;BME280;63709;53.258;-8.814;2023-03-20T13:50:41;100697.28;;;18.13;100.00
64340;BME280;63709;53.258;-8.814;2023-03-20T14:03:45;100682.75;;;18.14;100.00
64340;BME280;63709;53.258;-8.814;2023-03-20T14:08:51;100684.09;;;18.10;100.00
64340;BME280;63709;53.258;-8.814;2023-03-20T14:16:27;100666.03;;;18.19;100.00
64340;BME280;63709;53.258;-8.814;2023-03-20T14:21:39;100674.47;;;18.16;100.00
64340;BME280;63709;53.258;-8.814;2023-03-20T14:24:09;100661.81;;;18.17;100.00
64340;BME280;63709;53.258;-8.814;2023-03-20T14:26:38;100657.78;;;18.21;100.00
64340;BME280;63709;53.258;-8.814;2023-03-20T14:31:38;100655.56;;;18.08;100.00
64340;BME280;63709;53.258;-8.814;2023-03-20T14:34:12;100650.84;;;18.18;100.00
64340;BME280;63709;53.258;-8.814;2023-03-20T14:37:23;100654.56;;;18.17;100.00
64340;BME280;63709;53.258;-8.814;2023-03-20T14:50:05;100636.31;;;18.19;100.00
64340;BME280;63709;53.258;-8.814;2023-03-20T14:52:40;100627.03;;;18.05;100.00
64340;BME280;63709;53.258;-8.814;2023-03-20T14:55:14;100620.13;;;18.11;100.00
64340;BME280;63709;53.258;-8.814;2023-03-20T14:57:53;100618.25;;;18.03;100.00
64340;BME280;63709;53.258;-8.814;2023-03-20T15:00:22;100615.03;;;18.00;100.00
64340;BME280;63709;53.258;-8.814;2023-03-20T15:03:08;100607.44;;;17.87;100.00
64340;BME280;63709;53.258;-8.814;2023-03-20T15:05:36;100616.72;;;17.84;100.00
64340;BME280;63709;53.258;-8.814;2023-03-20T15:08:06;100615.72;;;17.77;100.00
64340;BME280;63709;53.258;-8.814;2023-03-20T15:10:37;100603.22;;;17.76;100.00